Time;durP1;ratioP1;P1;durP2;ratioP2;P2;SDS_P1;SDS_P2;PMS_P1;PMS_P2;Temp;Humidity;BMP_temperature;BMP_pressure;BME280_temperature;BME280_humidity;BME280_pressure;Samples;Min_cycle;Max_cycle;Signal;HPM_P1;HPM_P2
2022/10/31 00:02:19;;;;;;;8.18;4.90;;;;;;;;;;4928409;29;20181;-76
2022/10/31 00:04:44;;;;;;;8.50;5.60;;;;;;;;;;4930541;29;20449;-77
2022/10/31 00:07:10;;;;;;;10.00;5.30;;;;;;;;;;4916206;29;20047;-77
2022/10/31 00:09:35;;;;;;;9.23;5.22;;;;;;;;;;4917143;29;20031;-77
2022/10/31 00:12:00;;;;;;;10.75;5.57;;;;;;;;;;4932866;29;20400;-77
2022/10/31 00:14:26;;;;;;;9.27;5.53;;;;;;;;;;4914027;29;20035;-77
2022/10/31 00:16:51;;;;;;;8.63;5.40;;;;;;;;;;4915618;29;20035;-78
2022/10/31 00:19:16;;;;;;;9.30;5.28;;;;;;;;;;4915371;29;20130;-77
2022/10/31 00:21:42;;;;;;;9.20;5.65;;;;;;;;;;4932177;29;20042;-77
2022/10/31 00:24:07;;;;;;;9.07;5.72;;;;;;;;;;4925545;29;20384;-77
2022/10/31 00:26:33;;;;;;;8.43;5.53;;;;;;;;;;4912869;29;20056;-77
2022/10/31 00:29:00;;;;;;;10.45;6.35;;;;;;;;;;4926176;29;20040;-78
2022/10/31 00:31:25;;;;;;;10.93;6.50;;;;;;;;;;4929840;29;20387;-76
2022/10/31 00:33:50;;;;;;;10.50;6.10;;;;;;;;;;4929179;29;20040;-77
2022/10/31 00:36:18;;;;;;;8.88;5.53;;;;;;;;;;4906455;29;20087;-77
2022/10/31 00:38:45;;;;;;;9.50;5.63;;;;;;;;;;4921918;29;20485;-77
2022/10/31 00:41:12;;;;;;;10.68;5.47;;;;;;;;;;4932513;29;20473;-77
2022/10/31 00:43:37;;;;;;;8.93;5.90;;;;;;;;;;4912733;29;20039;-77
2022/10/31 00:46:03;;;;;;;10.65;5.70;;;;;;;;;;4927758;29;20031;-77
2022/10/31 00:48:29;;;;;;;9.40;5.97;;;;;;;;;;4926524;29;20023;-78
2022/10/31 00:50:54;;;;;;;10.15;6.22;;;;;;;;;;4927712;29;20515;-77
2022/10/31 00:53:19;;;;;;;11.32;6.15;;;;;;;;;;4932396;29;20055;-77
2022/10/31 00:55:45;;;;;;;10.32;6.55;;;;;;;;;;4914204;29;20071;-77
2022/10/31 00:58:10;;;;;;;10.55;6.22;;;;;;;;;;4910596;29;20034;-77
2022/10/31 01:00:35;;;;;;;10.77;6.30;;;;;;;;;;4908645;29;20039;-77
2022/10/31 01:03:01;;;;;;;10.32;6.57;;;;;;;;;;4927633;29;20507;-77
2022/10/31 01:05:26;;;;;;;11.18;6.22;;;;;;;;;;4925357;29;20408;-78
2022/10/31 01:07:52;;;;;;;8.75;6.40;;;;;;;;;;4911524;29;20024;-76
2022/10/31 01:10:18;;;;;;;10.27;6.30;;;;;;;;;;4914210;29;20043;-77
2022/10/31 01:12:46;;;;;;;9.82;6.40;;;;;;;;;;4912082;29;20057;-77
2022/10/31 01:15:13;;;;;;;10.18;5.82;;;;;;;;;;4912570;29;20397;-77
2022/10/31 01:17:39;;;;;;;9.65;5.72;;;;;;;;;;4923399;29;20038;-77
2022/10/31 01:20:06;;;;;;;9.45;6.07;;;;;;;;;;4909900;29;20031;-77
2022/10/31 01:22:35;;;;;;;10.95;6.38;;;;;;;;;;4924411;29;20059;-77
2022/10/31 01:25:00;;;;;;;10.88;6.60;;;;;;;;;;4911369;29;20032;-77
2022/10/31 01:27:26;;;;;;;10.93;6.32;;;;;;;;;;4927878;29;20473;-77
2022/10/31 01:29:51;;;;;;;10.45;6.10;;;;;;;;;;4926981;29;20042;-76
2022/10/31 01:32:17;;;;;;;10.02;6.20;;;;;;;;;;4913246;29;20050;-77
2022/10/31 01:34:42;;;;;;;11.82;7.10;;;;;;;;;;4927359;29;20507;-76
2022/10/31 01:37:07;;;;;;;12.60;6.90;;;;;;;;;;4928025;29;21713;-77
2022/10/31 01:39:33;;;;;;;10.52;6.40;;;;;;;;;;4927787;29;20110;-77
2022/10/31 01:41:58;;;;;;;9.15;6.15;;;;;;;;;;4929161;29;20034;-77
2022/10/31 01:44:23;;;;;;;11.18;6.78;;;;;;;;;;4928580;29;20452;-78
2022/10/31 01:47:06;;;;;;;11.25;6.53;;;;;;;;;;4925132;29;20032;-77
2022/10/31 01:49:54;;;;;;;10.23;6.78;;;;;;;;;;4927608;29;20043;-77
2022/10/31 01:52:32;;;;;;;11.30;6.35;;;;;;;;;;4924184;29;20083;-77
2022/10/31 01:55:02;;;;;;;11.52;7.03;;;;;;;;;;4925929;29;20055;-77
2022/10/31 01:57:30;;;;;;;10.63;6.43;;;;;;;;;;4911227;29;20032;-77
2022/10/31 02:00:00;;;;;;;10.82;6.75;;;;;;;;;;4926470;29;20499;-78
2022/10/31 02:02:28;;;;;;;10.48;6.80;;;;;;;;;;4909543;29;20028;-78
2022/10/31 02:04:54;;;;;;;11.45;6.25;;;;;;;;;;4912198;29;20042;-77
2022/10/31 02:07:27;;;;;;;10.38;6.43;;;;;;;;;;4927356;29;20044;-77
2022/10/31 02:09:54;;;;;;;11.00;6.78;;;;;;;;;;4924533;29;20395;-77
2022/10/31 02:12:20;;;;;;;11.43;7.18;;;;;;;;;;4923939;29;20041;-77
2022/10/31 02:14:46;;;;;;;10.93;6.78;;;;;;;;;;4911760;29;20036;-77
2022/10/31 02:17:11;;;;;;;11.43;6.53;;;;;;;;;;4925686;29;20155;-78
2022/10/31 02:19:52;;;;;;;9.18;6.40;;;;;;;;;;4922894;29;20036;-77
2022/10/31 02:22:43;;;;;;;10.73;6.53;;;;;;;;;;4913229;29;20031;-77
2022/10/31 02:25:47;;;;;;;11.15;6.90;;;;;;;;;;4891023;29;20048;-78
2022/10/31 02:28:51;;;;;;;13.93;6.72;;;;;;;;;;4851803;29;20056;-77
2022/10/31 02:31:26;;;;;;;10.60;6.30;;;;;;;;;;4853689;29;20037;-77
2022/10/31 02:34:14;;;;;;;13.10;6.72;;;;;;;;;;4913871;29;20047;-78
2022/10/31 02:36:47;;;;;;;12.55;6.63;;;;;;;;;;4927574;29;20712;-77
2022/10/31 02:39:37;;;;;;;9.98;6.60;;;;;;;;;;4923874;29;20419;-77
2022/10/31 02:42:13;;;;;;;9.68;6.30;;;;;;;;;;4923909;29;20035;-78
2022/10/31 02:44:45;;;;;;;11.18;7.13;;;;;;;;;;4912166;29;20496;-77
2022/10/31 02:47:21;;;;;;;9.90;6.80;;;;;;;;;;4924765;29;20035;-77
2022/10/31 02:50:02;;;;;;;9.27;6.07;;;;;;;;;;4921251;29;20266;-77
2022/10/31 02:52:29;;;;;;;11.30;6.80;;;;;;;;;;4926807;29;20091;-77
2022/10/31 02:54:55;;;;;;;10.57;6.55;;;;;;;;;;4924018;29;20589;-77
2022/10/31 02:57:25;;;;;;;11.73;6.63;;;;;;;;;;4927787;29;20118;-77
2022/10/31 02:59:57;;;;;;;11.80;6.78;;;;;;;;;;4925532;29;20024;-77
2022/10/31 03:02:33;;;;;;;10.70;6.57;;;;;;;;;;4928431;29;20047;-77
2022/10/31 03:05:01;;;;;;;10.65;6.47;;;;;;;;;;4925442;29;20485;-77
2022/10/31 03:08:16;;;;;;;13.10;7.28;;;;;;;;;;4925315;29;20507;-77
2022/10/31 03:10:46;;;;;;;11.82;6.65;;;;;;;;;;4905706;29;20072;-77
2022/10/31 03:13:33;;;;;;;10.38;7.10;;;;;;;;;;4924757;29;20174;-77
2022/10/31 03:16:16;;;;;;;11.15;6.80;;;;;;;;;;4923133;29;20027;-77
2022/10/31 03:19:07;;;;;;;11.30;6.95;;;;;;;;;;4925365;29;20132;-78
2022/10/31 03:21:39;;;;;;;10.80;6.78;;;;;;;;;;4920113;29;20496;-78
2022/10/31 03:24:07;;;;;;;10.77;6.85;;;;;;;;;;4906370;29;20038;-77
2022/10/31 03:26:35;;;;;;;9.48;6.38;;;;;;;;;;4923221;29;20378;-77
2022/10/31 03:29:04;;;;;;;9.85;6.90;;;;;;;;;;4930492;29;20034;-78
2022/10/31 03:31:36;;;;;;;10.13;7.00;;;;;;;;;;4930929;29;20110;-77
2022/10/31 03:34:03;;;;;;;11.47;7.50;;;;;;;;;;4914152;29;20433;-77
2022/10/31 03:36:32;;;;;;;11.63;7.15;;;;;;;;;;4910807;29;20433;-78
2022/10/31 03:38:59;;;;;;;10.25;6.70;;;;;;;;;;4933605;29;20042;-78
2022/10/31 03:41:30;;;;;;;9.68;6.53;;;;;;;;;;4927672;29;20063;-78
2022/10/31 03:44:00;;;;;;;9.80;6.57;;;;;;;;;;4930197;29;20031;-77
2022/10/31 03:46:26;;;;;;;12.73;7.22;;;;;;;;;;4932543;29;20055;-77
2022/10/31 03:48:52;;;;;;;9.07;6.47;;;;;;;;;;4912928;29;20034;-77
2022/10/31 03:51:38;;;;;;;10.10;6.82;;;;;;;;;;4926372;29;20392;-77
2022/10/31 03:54:13;;;;;;;11.50;7.43;;;;;;;;;;4912219;29;20065;-77
2022/10/31 03:56:48;;;;;;;10.57;6.80;;;;;;;;;;4930524;29;20495;-77
2022/10/31 03:59:19;;;;;;;11.07;7.07;;;;;;;;;;4926550;29;20038;-78
2022/10/31 04:01:50;;;;;;;10.57;6.63;;;;;;;;;;4928038;29;20110;-77
2022/10/31 04:04:16;;;;;;;11.70;7.20;;;;;;;;;;4934306;29;20560;-77
2022/10/31 04:06:44;;;;;;;10.23;7.00;;;;;;;;;;4927416;29;20026;-77
2022/10/31 04:09:10;;;;;;;12.50;7.43;;;;;;;;;;4916193;29;20074;-77
2022/10/31 04:11:42;;;;;;;10.90;6.93;;;;;;;;;;4930245;29;20032;-77
2022/10/31 04:14:09;;;;;;;9.80;6.73;;;;;;;;;;4916580;29;20555;-77
2022/10/31 04:16:35;;;;;;;10.93;6.18;;;;;;;;;;4932345;29;20027;-77
2022/10/31 04:19:00;;;;;;;10.60;7.00;;;;;;;;;;4926650;29;20137;-77
2022/10/31 04:21:30;;;;;;;10.25;7.07;;;;;;;;;;4923822;29;20035;-77
2022/10/31 04:23:56;;;;;;;10.77;7.18;;;;;;;;;;4918293;29;20039;-77
2022/10/31 04:26:22;;;;;;;10.35;6.93;;;;;;;;;;4914991;29;20106;-77
2022/10/31 04:28:47;;;;;;;9.52;6.68;;;;;;;;;;4930278;29;20028;-77
2022/10/31 04:31:13;;;;;;;11.23;6.70;;;;;;;;;;4927308;29;20110;-77
2022/10/31 04:33:39;;;;;;;11.38;6.57;;;;;;;;;;4928908;29;20493;-77
2022/10/31 04:36:04;;;;;;;10.98;7.03;;;;;;;;;;4932345;29;20031;-77
2022/10/31 04:38:30;;;;;;;9.38;7.10;;;;;;;;;;4931084;29;20024;-78
2022/10/31 04:40:56;;;;;;;11.40;7.32;;;;;;;;;;4928313;29;20452;-77
2022/10/31 04:43:21;;;;;;;12.18;6.70;;;;;;;;;;4913319;29;20028;-77
2022/10/31 04:45:46;;;;;;;12.55;7.03;;;;;;;;;;4926082;29;20027;-78
2022/10/31 04:48:12;;;;;;;11.60;7.20;;;;;;;;;;4909605;29;20476;-77
2022/10/31 04:50:37;;;;;;;9.68;7.13;;;;;;;;;;4926514;29;20027;-77
2022/10/31 04:53:02;;;;;;;11.30;7.18;;;;;;;;;;4931331;29;20059;-78
2022/10/31 04:55:28;;;;;;;11.65;7.25;;;;;;;;;;4925086;29;20535;-78
2022/10/31 04:57:53;;;;;;;11.27;7.25;;;;;;;;;;4926514;29;20032;-77
2022/10/31 05:00:21;;;;;;;10.13;6.85;;;;;;;;;;4925506;29;20059;-77
2022/10/31 05:02:51;;;;;;;10.23;6.55;;;;;;;;;;4925695;29;20190;-77
2022/10/31 05:05:19;;;;;;;14.90;7.50;;;;;;;;;;4912866;29;20445;-77
2022/10/31 05:07:46;;;;;;;11.23;7.13;;;;;;;;;;4913245;29;20027;-78
2022/10/31 05:10:15;;;;;;;11.65;7.25;;;;;;;;;;4928363;29;20032;-77
2022/10/31 05:12:52;;;;;;;13.18;7.50;;;;;;;;;;4910055;29;20369;-77
2022/10/31 05:15:19;;;;;;;10.35;7.10;;;;;;;;;;4910490;29;20026;-77
2022/10/31 05:17:45;;;;;;;11.05;7.53;;;;;;;;;;4911527;29;20054;-77
2022/10/31 05:20:12;;;;;;;12.35;8.30;;;;;;;;;;4929224;29;20032;-77
2022/10/31 05:22:42;;;;;;;10.85;7.10;;;;;;;;;;4915910;29;20082;-77
2022/10/31 05:25:08;;;;;;;12.27;7.20;;;;;;;;;;4911918;29;20058;-77
2022/10/31 05:27:33;;;;;;;11.70;6.88;;;;;;;;;;4927451;29;20052;-77
2022/10/31 05:29:59;;;;;;;12.90;7.90;;;;;;;;;;4911159;29;20058;-77
2022/10/31 05:32:24;;;;;;;12.23;7.13;;;;;;;;;;4930552;29;20027;-77
2022/10/31 05:34:49;;;;;;;12.48;7.28;;;;;;;;;;4912012;29;20027;-77
2022/10/31 05:37:15;;;;;;;11.15;7.20;;;;;;;;;;4914192;29;20122;-77
2022/10/31 05:39:40;;;;;;;12.48;7.57;;;;;;;;;;4928730;29;20023;-78
2022/10/31 05:42:05;;;;;;;11.57;7.32;;;;;;;;;;4925826;29;20028;-77
2022/10/31 05:44:31;;;;;;;12.35;7.40;;;;;;;;;;4915680;29;20024;-77
2022/10/31 05:46:56;;;;;;;13.00;8.07;;;;;;;;;;4924463;29;20403;-77
2022/10/31 05:49:22;;;;;;;11.88;7.05;;;;;;;;;;4911023;29;20110;-77
2022/10/31 05:51:48;;;;;;;11.82;7.50;;;;;;;;;;4926783;29;20027;-77
2022/10/31 05:54:13;;;;;;;13.23;7.63;;;;;;;;;;4911216;29;20078;-77
2022/10/31 05:56:38;;;;;;;12.55;8.32;;;;;;;;;;4924432;29;20028;-77
2022/10/31 05:59:04;;;;;;;12.52;7.45;;;;;;;;;;4921929;29;20036;-77
2022/10/31 06:01:29;;;;;;;13.20;8.27;;;;;;;;;;4916049;29;20159;-77
2022/10/31 06:03:54;;;;;;;13.07;8.13;;;;;;;;;;4924039;29;20051;-77
2022/10/31 06:06:20;;;;;;;12.20;8.48;;;;;;;;;;4929815;29;20034;-77
2022/10/31 06:08:45;;;;;;;14.10;8.25;;;;;;;;;;4925464;29;20031;-77
2022/10/31 06:11:10;;;;;;;14.75;8.45;;;;;;;;;;4926316;29;20027;-77
2022/10/31 06:13:36;;;;;;;12.35;7.85;;;;;;;;;;4925092;29;20103;-77
2022/10/31 06:16:01;;;;;;;12.48;7.90;;;;;;;;;;4913569;29;20396;-77
2022/10/31 06:18:27;;;;;;;14.57;8.15;;;;;;;;;;4924422;29;20122;-77
2022/10/31 06:20:52;;;;;;;13.30;8.20;;;;;;;;;;4923547;29;20023;-77
2022/10/31 06:23:17;;;;;;;12.07;8.18;;;;;;;;;;4926895;29;20035;-77
2022/10/31 06:25:43;;;;;;;12.98;8.02;;;;;;;;;;4925224;29;20039;-77
2022/10/31 06:28:08;;;;;;;15.18;8.55;;;;;;;;;;4916743;29;20035;-77
2022/10/31 06:30:33;;;;;;;12.98;8.55;;;;;;;;;;4924903;29;20027;-77
2022/10/31 06:33:03;;;;;;;13.07;8.38;;;;;;;;;;4928533;29;20039;-77
2022/10/31 06:35:29;;;;;;;13.25;8.65;;;;;;;;;;4933950;29;20388;-77
2022/10/31 06:37:55;;;;;;;15.32;8.30;;;;;;;;;;4930482;29;20034;-77
2022/10/31 06:40:21;;;;;;;13.27;8.02;;;;;;;;;;4930585;29;20027;-77
2022/10/31 06:42:46;;;;;;;12.27;7.93;;;;;;;;;;4930806;29;20035;-78
2022/10/31 06:45:12;;;;;;;12.48;8.20;;;;;;;;;;4912483;29;21878;-77
2022/10/31 06:47:37;;;;;;;14.07;8.63;;;;;;;;;;4910441;29;20036;-77
2022/10/31 06:50:03;;;;;;;12.40;8.38;;;;;;;;;;4914752;29;20075;-78
2022/10/31 06:52:28;;;;;;;15.68;8.27;;;;;;;;;;4925008;29;20035;-77
2022/10/31 06:54:53;;;;;;;12.32;8.23;;;;;;;;;;4919784;29;20028;-77
2022/10/31 06:57:19;;;;;;;13.15;8.13;;;;;;;;;;4930462;29;20028;-77
2022/10/31 06:59:44;;;;;;;13.70;8.77;;;;;;;;;;4913533;29;20074;-77
2022/10/31 07:02:10;;;;;;;14.85;8.50;;;;;;;;;;4911892;29;20374;-77
2022/10/31 07:04:36;;;;;;;13.77;8.55;;;;;;;;;;4931335;29;20059;-76
2022/10/31 07:07:01;;;;;;;13.93;8.90;;;;;;;;;;4918165;29;20110;-76
2022/10/31 07:09:26;;;;;;;13.95;8.65;;;;;;;;;;4933968;29;20031;-76
2022/10/31 07:11:53;;;;;;;14.32;9.23;;;;;;;;;;4935021;29;20413;-77
2022/10/31 07:14:18;;;;;;;13.48;9.55;;;;;;;;;;4930670;29;20020;-77
2022/10/31 07:16:43;;;;;;;14.18;9.07;;;;;;;;;;4918156;29;20127;-76
2022/10/31 07:19:09;;;;;;;14.25;8.73;;;;;;;;;;4930379;29;20024;-77
2022/10/31 07:21:34;;;;;;;15.25;9.07;;;;;;;;;;4928860;29;20035;-77
2022/10/31 07:23:59;;;;;;;14.63;9.75;;;;;;;;;;4938700;29;20060;-77
2022/10/31 07:26:25;;;;;;;14.18;9.15;;;;;;;;;;4928678;29;20048;-77
2022/10/31 07:28:51;;;;;;;18.17;10.02;;;;;;;;;;4914696;29;20515;-76
2022/10/31 07:31:16;;;;;;;14.48;9.35;;;;;;;;;;4911654;29;20047;-76
2022/10/31 07:33:42;;;;;;;15.38;10.07;;;;;;;;;;4910360;29;20420;-77
2022/10/31 07:36:07;;;;;;;16.08;10.38;;;;;;;;;;4908293;29;20079;-76
2022/10/31 07:38:33;;;;;;;18.45;10.55;;;;;;;;;;4913867;29;20134;-76
2022/10/31 07:40:58;;;;;;;16.67;10.10;;;;;;;;;;4916599;29;20040;-76
2022/10/31 07:43:23;;;;;;;14.93;10.13;;;;;;;;;;4913148;29;20029;-76
2022/10/31 07:45:53;;;;;;;21.67;11.27;;;;;;;;;;4922316;29;20392;-76
2022/10/31 07:48:19;;;;;;;15.10;10.02;;;;;;;;;;4915544;29;20396;-77
2022/10/31 07:50:44;;;;;;;17.85;11.43;;;;;;;;;;4910144;29;20040;-76
2022/10/31 07:53:11;;;;;;;17.48;10.60;;;;;;;;;;4922505;29;20060;-76
2022/10/31 07:55:36;;;;;;;18.17;11.15;;;;;;;;;;4913773;29;20035;-76
2022/10/31 07:58:07;;;;;;;17.77;11.35;;;;;;;;;;4928655;29;20099;-76
2022/10/31 08:00:34;;;;;;;19.00;11.30;;;;;;;;;;4906648;29;20023;-76
2022/10/31 08:03:02;;;;;;;19.60;10.95;;;;;;;;;;4912064;29;20059;-76
2022/10/31 08:05:28;;;;;;;18.88;11.57;;;;;;;;;;4915383;29;20039;-76
2022/10/31 08:07:54;;;;;;;18.13;11.57;;;;;;;;;;4912148;29;20043;-76
2022/10/31 08:10:20;;;;;;;21.58;13.05;;;;;;;;;;4927039;29;20114;-76
2022/10/31 08:12:46;;;;;;;22.10;12.40;;;;;;;;;;4913494;29;20032;-76
2022/10/31 08:15:11;;;;;;;21.40;12.52;;;;;;;;;;4908301;29;20028;-76
2022/10/31 08:17:37;;;;;;;19.92;12.32;;;;;;;;;;4910314;29;20472;-77
2022/10/31 08:20:05;;;;;;;18.95;11.93;;;;;;;;;;4910562;29;20216;-77
2022/10/31 08:22:30;;;;;;;22.25;12.95;;;;;;;;;;4915058;29;20039;-77
2022/10/31 08:24:55;;;;;;;18.70;11.93;;;;;;;;;;4914441;29;20032;-76
2022/10/31 08:27:21;;;;;;;19.17;11.73;;;;;;;;;;4926346;29;20126;-76
2022/10/31 08:29:46;;;;;;;19.95;11.65;;;;;;;;;;4928860;29;20039;-77
2022/10/31 08:32:12;;;;;;;17.42;9.98;;;;;;;;;;4931810;29;20031;-76
2022/10/31 08:34:37;;;;;;;16.45;10.48;;;;;;;;;;4919175;29;20059;-76
2022/10/31 08:37:02;;;;;;;18.95;11.00;;;;;;;;;;4932836;29;20114;-76
2022/10/31 08:39:28;;;;;;;18.83;10.63;;;;;;;;;;4932689;29;20050;-76
2022/10/31 08:41:53;;;;;;;16.88;9.93;;;;;;;;;;4934537;29;20027;-76
2022/10/31 08:44:19;;;;;;;17.02;9.70;;;;;;;;;;4915900;29;20083;-76
2022/10/31 08:46:44;;;;;;;13.90;9.23;;;;;;;;;;4930231;29;20031;-77
2022/10/31 08:49:09;;;;;;;15.20;8.93;;;;;;;;;;4916515;29;20024;-77
2022/10/31 08:51:35;;;;;;;14.27;9.20;;;;;;;;;;4926538;29;20146;-76
2022/10/31 08:54:00;;;;;;;12.40;8.68;;;;;;;;;;4927240;29;20031;-77
2022/10/31 08:56:25;;;;;;;14.55;7.80;;;;;;;;;;4934776;29;20036;-77
2022/10/31 08:58:52;;;;;;;13.15;8.93;;;;;;;;;;4932716;29;20080;-76
2022/10/31 09:01:18;;;;;;;14.90;8.27;;;;;;;;;;4913603;29;20036;-76
2022/10/31 09:03:43;;;;;;;13.45;8.48;;;;;;;;;;4932596;29;20042;-76
2022/10/31 09:06:08;;;;;;;12.85;7.50;;;;;;;;;;4925922;29;20028;-77
2022/10/31 09:08:35;;;;;;;13.30;8.82;;;;;;;;;;4922664;29;20115;-77
2022/10/31 09:11:01;;;;;;;14.48;9.45;;;;;;;;;;4934566;29;20400;-76
2022/10/31 09:13:27;;;;;;;16.55;9.50;;;;;;;;;;4932884;29;20056;-77
2022/10/31 09:15:52;;;;;;;17.42;10.57;;;;;;;;;;4921157;29;20526;-76
2022/10/31 09:18:21;;;;;;;16.05;10.57;;;;;;;;;;4934208;29;20040;-76
2022/10/31 09:20:48;;;;;;;18.10;9.60;;;;;;;;;;4917890;29;20039;-76
2022/10/31 09:23:23;;;;;;;16.08;10.55;;;;;;;;;;4915519;29;20567;-76
2022/10/31 09:25:50;;;;;;;14.60;9.52;;;;;;;;;;4913755;29;20031;-77
2022/10/31 09:28:18;;;;;;;11.40;8.85;;;;;;;;;;4910357;29;20032;-76
2022/10/31 09:30:46;;;;;;;14.25;9.88;;;;;;;;;;4909730;29;20035;-76
2022/10/31 09:33:13;;;;;;;16.55;10.07;;;;;;;;;;4911596;29;20029;-76
2022/10/31 09:35:39;;;;;;;17.58;10.13;;;;;;;;;;4911553;29;20040;-76
2022/10/31 09:38:08;;;;;;;15.45;9.65;;;;;;;;;;4911431;29;20412;-76
2022/10/31 09:40:39;;;;;;;13.93;9.52;;;;;;;;;;4905386;29;20532;-76
2022/10/31 09:43:07;;;;;;;17.25;9.65;;;;;;;;;;4909936;29;20037;-77
2022/10/31 09:45:56;;;;;;;17.58;9.68;;;;;;;;;;4902624;29;20040;-77
2022/10/31 09:48:43;;;;;;;16.15;9.98;;;;;;;;;;4908274;29;20482;-76
2022/10/31 09:51:37;;;;;;;14.40;9.52;;;;;;;;;;4908551;29;20043;-77
2022/10/31 09:54:18;;;;;;;17.95;10.30;;;;;;;;;;4907743;29;20032;-77
2022/10/31 09:56:44;;;;;;;17.95;11.20;;;;;;;;;;4902739;29;20024;-77
2022/10/31 09:59:26;;;;;;;20.35;10.68;;;;;;;;;;4908316;29;20050;-77
2022/10/31 10:02:00;;;;;;;19.92;12.40;;;;;;;;;;4900836;29;20067;-77
2022/10/31 10:04:44;;;;;;;20.10;11.88;;;;;;;;;;4907339;29;20055;-77
2022/10/31 10:07:34;;;;;;;22.58;12.13;;;;;;;;;;4903142;29;20114;-77
2022/10/31 10:10:01;;;;;;;19.23;12.75;;;;;;;;;;4903339;29;20127;-76
2022/10/31 10:12:38;;;;;;;20.92;12.10;;;;;;;;;;4905262;29;20046;-76
2022/10/31 10:15:17;;;;;;;20.50;12.93;;;;;;;;;;4904629;29;20115;-77
2022/10/31 10:18:00;;;;;;;19.70;12.98;;;;;;;;;;4900230;29;20047;-77
2022/10/31 10:20:38;;;;;;;23.50;13.13;;;;;;;;;;4920296;29;20035;-77
2022/10/31 10:23:16;;;;;;;19.42;12.68;;;;;;;;;;4918238;29;20040;-76
2022/10/31 10:25:46;;;;;;;21.23;13.18;;;;;;;;;;4923211;29;20038;-76
2022/10/31 10:28:21;;;;;;;23.17;13.93;;;;;;;;;;4924329;29;20090;-77
2022/10/31 10:30:50;;;;;;;20.35;13.00;;;;;;;;;;4910205;29;20039;-76
2022/10/31 10:33:21;;;;;;;23.92;14.02;;;;;;;;;;4922939;29;20384;-76
2022/10/31 10:35:51;;;;;;;19.27;13.52;;;;;;;;;;4911127;29;20059;-76
2022/10/31 10:38:33;;;;;;;20.27;13.27;;;;;;;;;;4924746;29;20044;-77
2022/10/31 10:41:01;;;;;;;22.92;12.73;;;;;;;;;;4924145;29;20024;-77
2022/10/31 10:43:35;;;;;;;20.25;13.13;;;;;;;;;;4907889;29;21146;-76
2022/10/31 10:49:17;;;;;;;22.02;14.10;;;;;;;;;;4932954;29;20059;-77
2022/10/31 10:51:59;;;;;;;23.33;13.45;;;;;;;;;;4913736;29;20035;-77
2022/10/31 10:54:52;;;;;;;24.35;13.82;;;;;;;;;;4931249;29;20046;-76
2022/10/31 10:57:56;;;;;;;22.80;14.43;;;;;;;;;;4912544;29;20031;-77
2022/10/31 11:00:51;;;;;;;25.27;14.93;;;;;;;;;;4929326;29;20493;-76
2022/10/31 11:03:17;;;;;;;27.35;15.18;;;;;;;;;;4927178;29;20047;-76
2022/10/31 11:06:01;;;;;;;30.10;16.10;;;;;;;;;;4934941;29;20429;-76
2022/10/31 11:08:35;;;;;;;25.50;16.27;;;;;;;;;;4929461;29;20083;-77
2022/10/31 11:11:04;;;;;;;29.38;16.50;;;;;;;;;;4916404;29;20031;-76
2022/10/31 11:13:32;;;;;;;28.63;16.83;;;;;;;;;;4926005;29;20038;-77
2022/10/31 11:16:08;;;;;;;26.48;16.05;;;;;;;;;;4927610;29;20039;-76
2022/10/31 11:18:45;;;;;;;29.98;16.80;;;;;;;;;;4925173;29;20035;-76
2022/10/31 11:21:23;;;;;;;25.73;15.43;;;;;;;;;;4933897;29;20550;-77
2022/10/31 11:23:49;;;;;;;27.33;17.00;;;;;;;;;;4934838;29;20078;-76
2022/10/31 11:26:21;;;;;;;27.40;16.45;;;;;;;;;;4933780;29;20598;-77
2022/10/31 11:28:57;;;;;;;32.22;17.02;;;;;;;;;;4926260;29;20035;-77
2022/10/31 11:31:23;;;;;;;28.75;15.50;;;;;;;;;;4932061;29;20027;-76
2022/10/31 11:33:57;;;;;;;26.95;16.10;;;;;;;;;;4915218;29;20508;-76
2022/10/31 11:36:29;;;;;;;24.88;15.23;;;;;;;;;;4933890;29;20027;-77
2022/10/31 11:38:55;;;;;;;26.33;15.98;;;;;;;;;;4933801;29;20035;-76
2022/10/31 11:41:27;;;;;;;26.30;16.33;;;;;;;;;;4931595;29;20091;-76
2022/10/31 11:44:00;;;;;;;25.45;15.43;;;;;;;;;;4932701;29;20055;-76
2022/10/31 11:46:39;;;;;;;27.15;16.48;;;;;;;;;;4929532;29;20110;-77
2022/10/31 11:49:11;;;;;;;31.23;17.08;;;;;;;;;;4928765;29;20027;-77
2022/10/31 11:51:36;;;;;;;29.55;17.17;;;;;;;;;;4926502;29;20039;-76
2022/10/31 11:54:04;;;;;;;29.52;16.23;;;;;;;;;;4934416;29;20028;-77
2022/10/31 11:56:42;;;;;;;29.95;17.20;;;;;;;;;;4937058;29;20035;-76
2022/10/31 11:59:28;;;;;;;30.45;17.15;;;;;;;;;;4920585;29;20028;-76
2022/10/31 12:01:54;;;;;;;30.60;17.55;;;;;;;;;;4927509;29;20498;-77
2022/10/31 12:04:41;;;;;;;31.63;17.27;;;;;;;;;;4930720;29;20034;-76
2022/10/31 12:07:07;;;;;;;29.70;16.55;;;;;;;;;;4935499;29;20095;-76
2022/10/31 12:09:35;;;;;;;29.75;17.25;;;;;;;;;;4926421;29;20508;-76
2022/10/31 12:12:12;;;;;;;29.13;16.50;;;;;;;;;;4935486;29;20084;-76
2022/10/31 12:15:12;;;;;;;25.40;16.45;;;;;;;;;;4933433;29;20384;-76
2022/10/31 12:18:15;;;;;;;31.45;15.98;;;;;;;;;;4916248;29;20492;-76
2022/10/31 12:21:03;;;;;;;27.60;15.77;;;;;;;;;;4931998;29;20492;-76
2022/10/31 12:23:52;;;;;;;25.50;16.33;;;;;;;;;;4933657;29;20503;-76
2022/10/31 12:26:29;;;;;;;27.77;15.70;;;;;;;;;;4881071;29;20047;-77
2022/10/31 12:29:22;;;;;;;30.60;16.00;;;;;;;;;;4934089;29;20103;-76
2022/10/31 12:32:15;;;;;;;29.58;16.67;;;;;;;;;;4931500;29;20031;-76
2022/10/31 12:35:24;;;;;;;28.80;16.23;;;;;;;;;;4929820;29;20040;-76
2022/10/31 12:38:19;;;;;;;28.20;15.45;;;;;;;;;;4927663;29;20118;-78
2022/10/31 12:41:19;;;;;;;26.15;14.98;;;;;;;;;;4924971;29;20047;-76
2022/10/31 12:44:00;;;;;;;31.38;15.27;;;;;;;;;;4931654;29;20082;-76
2022/10/31 12:47:00;;;;;;;25.60;14.60;;;;;;;;;;4911451;29;20472;-77
2022/10/31 12:49:46;;;;;;;25.25;14.98;;;;;;;;;;4915658;29;20027;-77
2022/10/31 12:52:21;;;;;;;23.17;14.00;;;;;;;;;;4930746;29;20031;-76
2022/10/31 12:55:08;;;;;;;26.00;14.23;;;;;;;;;;4914857;29;20031;-76
2022/10/31 12:57:50;;;;;;;24.88;14.05;;;;;;;;;;4916760;29;20035;-76
2022/10/31 13:00:17;;;;;;;24.13;13.98;;;;;;;;;;4929292;29;20576;-76
2022/10/31 13:02:58;;;;;;;24.52;13.98;;;;;;;;;;4929062;29;20396;-76
2022/10/31 13:05:46;;;;;;;25.05;14.45;;;;;;;;;;4920222;29;20036;-76
2022/10/31 13:08:18;;;;;;;22.52;12.80;;;;;;;;;;4914434;29;20032;-76
2022/10/31 13:11:05;;;;;;;21.63;12.70;;;;;;;;;;4924511;29;20085;-76
2022/10/31 13:14:02;;;;;;;21.40;13.55;;;;;;;;;;4932032;29;20056;-76
2022/10/31 13:16:32;;;;;;;22.70;12.50;;;;;;;;;;4932864;29;20056;-77
2022/10/31 13:19:03;;;;;;;23.10;13.10;;;;;;;;;;4914296;29;20032;-77
2022/10/31 13:21:41;;;;;;;22.45;12.38;;;;;;;;;;4916688;29;20035;-76
2022/10/31 13:24:13;;;;;;;19.95;12.02;;;;;;;;;;4916241;29;20505;-76
2022/10/31 13:26:47;;;;;;;19.25;11.10;;;;;;;;;;4916479;29;20079;-76
2022/10/31 13:29:29;;;;;;;18.48;11.77;;;;;;;;;;4933693;29;20084;-76
2022/10/31 13:31:54;;;;;;;18.83;11.10;;;;;;;;;;4914192;29;20034;-77
2022/10/31 13:34:25;;;;;;;18.50;10.35;;;;;;;;;;4915150;29;20032;-76
2022/10/31 13:37:22;;;;;;;24.02;11.68;;;;;;;;;;4915533;29;20519;-76
2022/10/31 13:40:02;;;;;;;20.98;12.27;;;;;;;;;;4918073;29;20028;-76
2022/10/31 13:43:12;;;;;;;18.67;10.95;;;;;;;;;;4932690;29;20049;-76
2022/10/31 13:45:49;;;;;;;15.30;10.18;;;;;;;;;;4889479;29;20055;-76
2022/10/31 13:48:14;;;;;;;16.73;10.25;;;;;;;;;;4927542;29;20054;-77
2022/10/31 13:50:41;;;;;;;16.90;9.48;;;;;;;;;;4934626;29;20031;-76
2022/10/31 13:53:16;;;;;;;20.05;10.45;;;;;;;;;;4916822;29;20039;-77
2022/10/31 13:56:16;;;;;;;18.40;10.32;;;;;;;;;;4917364;29;20043;-76
2022/10/31 13:59:16;;;;;;;20.88;10.90;;;;;;;;;;4929349;29;20378;-76
2022/10/31 14:01:47;;;;;;;19.27;10.25;;;;;;;;;;4909362;29;20028;-77
2022/10/31 14:04:25;;;;;;;18.70;10.30;;;;;;;;;;4924900;29;20054;-76
2022/10/31 14:07:11;;;;;;;22.33;10.40;;;;;;;;;;4915494;29;20507;-77
2022/10/31 14:09:48;;;;;;;18.77;11.02;;;;;;;;;;4914841;29;20024;-76
2022/10/31 14:12:42;;;;;;;18.38;9.63;;;;;;;;;;4930904;29;20027;-76
2022/10/31 14:15:17;;;;;;;20.45;10.43;;;;;;;;;;4921310;29;20413;-76
2022/10/31 14:17:52;;;;;;;19.38;10.55;;;;;;;;;;4909758;29;20039;-77
2022/10/31 14:20:17;;;;;;;17.27;10.70;;;;;;;;;;4919698;29;20028;-76
2022/10/31 14:22:43;;;;;;;19.77;10.35;;;;;;;;;;4915953;29;20036;-76
2022/10/31 14:25:29;;;;;;;18.58;10.60;;;;;;;;;;4929263;29;20032;-76
2022/10/31 14:27:55;;;;;;;18.40;9.93;;;;;;;;;;4915426;29;20572;-76
2022/10/31 14:30:24;;;;;;;19.30;9.73;;;;;;;;;;4931898;29;20031;-77
2022/10/31 14:32:53;;;;;;;15.98;9.40;;;;;;;;;;4933600;29;20508;-76
2022/10/31 14:35:20;;;;;;;15.95;9.55;;;;;;;;;;4932223;29;20024;-77
2022/10/31 14:38:09;;;;;;;22.17;10.25;;;;;;;;;;4934231;29;20086;-77
2022/10/31 14:40:52;;;;;;;17.65;9.65;;;;;;;;;;4932155;29;20031;-78
2022/10/31 14:43:55;;;;;;;18.88;9.93;;;;;;;;;;4930154;29;20123;-76
2022/10/31 14:46:50;;;;;;;17.95;10.13;;;;;;;;;;4930094;29;20072;-76
2022/10/31 14:49:24;;;;;;;20.50;10.00;;;;;;;;;;4930786;29;20514;-77
2022/10/31 14:51:51;;;;;;;17.73;9.48;;;;;;;;;;4927757;29;20031;-77
2022/10/31 14:54:33;;;;;;;20.98;10.45;;;;;;;;;;4931388;29;20027;-77
2022/10/31 14:57:04;;;;;;;23.02;10.63;;;;;;;;;;4913273;29;20043;-76